Time;durP1;ratioP1;P1;durP2;ratioP2;P2;SDS_P1;SDS_P2;PMS_P1;PMS_P2;Temp;Humidity;BMP_temperature;BMP_pressure;BME280_temperature;BME280_humidity;BME280_pressure;Samples;Min_cycle;Max_cycle;Signal;HPM_P1;HPM_P2
2022/01/16 00:04:34;;;;;;;49.92;23.75;;;2.40;99.90;;;;;;5092281;28;20044;-75
2022/01/16 00:07:05;;;;;;;47.33;22.75;;;2.40;99.90;;;;;;5075476;28;20130;-74
2022/01/16 00:09:35;;;;;;;53.08;25.63;;;2.40;99.90;;;;;;5075766;28;20039;-74
2022/01/16 00:12:05;;;;;;;46.65;24.23;;;2.50;99.90;;;;;;5075190;28;20497;-72
2022/01/16 00:14:31;;;;;;;48.22;25.58;;;2.50;99.90;;;;;;5092111;28;20544;-72
2022/01/16 00:16:57;;;;;;;48.58;24.00;;;2.40;99.90;;;;;;5091712;28;20128;-73
2022/01/16 00:19:23;;;;;;;53.38;25.38;;;2.40;99.90;;;;;;5092209;28;20051;-74
2022/01/16 00:21:49;;;;;;;51.95;25.10;;;2.40;99.90;;;;;;5092079;28;20044;-74
2022/01/16 00:24:15;;;;;;;50.90;26.00;;;2.30;99.90;;;;;;5091943;28;20093;-75
2022/01/16 00:26:41;;;;;;;49.95;24.40;;;2.60;99.90;;;;;;5092040;28;20051;-75
2022/01/16 00:29:07;;;;;;;52.72;27.25;;;2.40;99.90;;;;;;5091169;28;20067;-76
2022/01/16 00:31:35;;;;;;;54.00;26.70;;;2.40;99.90;;;;;;5092394;28;20051;-75
2022/01/16 00:34:00;;;;;;;53.63;27.40;;;2.40;99.90;;;;;;5074401;28;20044;-75
2022/01/16 00:36:26;;;;;;;48.00;25.35;;;2.30;99.90;;;;;;5092072;28;20040;-76
2022/01/16 00:38:54;;;;;;;52.03;26.20;;;2.30;99.90;;;;;;5074720;28;20094;-75
2022/01/16 00:41:21;;;;;;;55.85;26.33;;;2.40;99.90;;;;;;5109060;28;20040;-75
2022/01/16 00:43:48;;;;;;;58.33;28.42;;;2.20;99.90;;;;;;5091638;28;20040;-75
2022/01/16 00:46:14;;;;;;;57.80;27.33;;;2.40;99.90;;;;;;5091824;28;20543;-75
2022/01/16 00:48:40;;;;;;;57.55;28.02;;;2.20;99.90;;;;;;5074835;28;20083;-75
2022/01/16 00:51:06;;;;;;;52.60;26.50;;;2.50;99.90;;;;;;5074164;28;20048;-74
2022/01/16 00:53:32;;;;;;;48.35;27.45;;;2.40;99.90;;;;;;5074859;28;20075;-74
2022/01/16 00:55:57;;;;;;;54.92;25.92;;;2.50;99.90;;;;;;5107732;28;20460;-74
2022/01/16 00:58:23;;;;;;;52.60;25.13;;;2.40;99.90;;;;;;5108663;28;20044;-74
2022/01/16 01:00:49;;;;;;;48.15;25.55;;;2.80;99.90;;;;;;5091511;28;20435;-74
2022/01/16 01:03:15;;;;;;;57.05;27.55;;;3.30;99.90;;;;;;5108152;28;20047;-75
2022/01/16 01:05:41;;;;;;;59.15;28.38;;;3.00;99.90;;;;;;5091953;28;20370;-75
2022/01/16 01:08:08;;;;;;;56.58;28.40;;;2.70;99.90;;;;;;5090424;28;20040;-74
2022/01/16 01:10:37;;;;;;;58.17;30.10;;;2.70;99.90;;;;;;5091399;28;20051;-75
2022/01/16 01:13:12;;;;;;;59.58;30.27;;;2.60;99.90;;;;;;5090835;28;20044;-74
2022/01/16 01:15:48;;;;;;;60.08;29.85;;;2.80;99.90;;;;;;5091115;28;20123;-74
2022/01/16 01:18:15;;;;;;;62.92;29.98;;;2.90;99.90;;;;;;5074085;28;20039;-74
2022/01/16 01:20:42;;;;;;;53.72;26.92;;;2.80;99.90;;;;;;5074480;28;20040;-74
2022/01/16 01:23:09;;;;;;;60.03;28.20;;;2.80;99.90;;;;;;5090107;28;20039;-74
2022/01/16 01:25:35;;;;;;;69.13;31.10;;;3.30;99.90;;;;;;5091305;28;20071;-74
2022/01/16 01:28:01;;;;;;;61.03;29.52;;;2.60;99.90;;;;;;5090650;28;20110;-74
2022/01/16 01:30:27;;;;;;;56.92;30.73;;;2.60;99.90;;;;;;5073680;28;20072;-74
2022/01/16 01:32:54;;;;;;;57.72;29.48;;;2.80;99.90;;;;;;5090574;28;20396;-74
2022/01/16 01:35:21;;;;;;;61.58;28.80;;;2.90;99.90;;;;;;5091067;28;20032;-75
2022/01/16 01:37:47;;;;;;;59.72;28.20;;;2.80;99.90;;;;;;5090535;28;20036;-74
2022/01/16 01:40:18;;;;;;;61.10;29.35;;;2.80;99.90;;;;;;5090627;28;20078;-74
2022/01/16 01:51:15;;;;;;;74.57;32.28;;;2.80;99.90;;;;;;5090626;28;20513;-74
2022/01/16 01:53:42;;;;;;;76.93;35.60;;;2.80;99.90;;;;;;5074023;28;20040;-75
2022/01/16 01:56:11;;;;;;;63.83;30.33;;;2.90;99.90;;;;;;5090343;28;20036;-73
2022/01/16 01:58:37;;;;;;;67.70;33.58;;;2.90;99.90;;;;;;5090693;28;20043;-74
2022/01/16 02:01:04;;;;;;;78.25;35.40;;;2.90;99.90;;;;;;5090215;28;20044;-73
2022/01/16 02:03:42;;;;;;;71.90;33.17;;;2.90;99.90;;;;;;5095211;28;20134;-74
2022/01/16 02:06:15;;;;;;;79.45;33.65;;;3.00;99.90;;;;;;5094325;28;20540;-74
2022/01/16 02:08:51;;;;;;;85.63;36.63;;;2.90;99.90;;;;;;5078307;28;20499;-73
2022/01/16 02:11:18;;;;;;;73.97;33.53;;;2.90;99.90;;;;;;5094338;28;20488;-74
2022/01/16 02:13:54;;;;;;;81.95;38.97;;;2.90;99.90;;;;;;5111425;28;20043;-75
2022/01/16 02:28:20;;;;;;;100.63;40.03;;;2.80;99.90;;;;;;5094022;28;20044;-75
2022/01/16 02:35:54;;;;;;;96.20;40.25;;;2.90;99.90;;;;;;5093847;28;20507;-75
2022/01/16 02:38:21;;;;;;;103.10;40.55;;;3.00;99.90;;;;;;5094549;28;20437;-75
2022/01/16 02:41:01;;;;;;;108.82;42.80;;;3.00;99.90;;;;;;5093082;28;20044;-75
2022/01/16 02:43:33;;;;;;;102.80;40.47;;;2.90;99.90;;;;;;5111075;28;20480;-75
2022/01/16 02:48:55;;;;;;;97.95;37.78;;;3.10;99.90;;;;;;5070202;28;20055;-75
2022/01/16 02:51:24;;;;;;;112.45;41.42;;;3.00;99.90;;;;;;5093774;28;20032;-75
2022/01/16 02:53:50;;;;;;;103.93;41.00;;;3.00;99.90;;;;;;5093513;28;20055;-75
2022/01/16 02:56:18;;;;;;;94.75;42.00;;;4.00;99.90;;;;;;5093796;28;20485;-75
2022/01/16 02:58:45;;;;;;;92.15;40.97;;;2.90;99.90;;;;;;5076701;28;20032;-75
2022/01/16 03:01:12;;;;;;;105.57;42.78;;;3.10;99.90;;;;;;5092705;28;20044;-75
2022/01/16 03:03:38;;;;;;;93.95;39.35;;;3.20;99.90;;;;;;5110687;28;20040;-75
2022/01/16 03:06:03;;;;;;;107.70;39.95;;;3.20;99.90;;;;;;5076247;28;20047;-75
2022/01/16 03:08:29;;;;;;;105.25;40.97;;;3.30;99.90;;;;;;5093035;28;20385;-75
2022/01/16 03:13:21;;;;;;;106.57;42.00;;;3.20;99.90;;;;;;5093175;28;20052;-76
2022/01/16 03:15:50;;;;;;;102.63;39.65;;;3.20;99.90;;;;;;5109926;28;20485;-75
2022/01/16 03:23:26;;;;;;;109.82;43.40;;;3.30;99.90;;;;;;5093464;28;20087;-76
2022/01/16 03:25:52;;;;;;;106.93;43.35;;;3.10;99.90;;;;;;5092842;28;20075;-75
2022/01/16 03:28:19;;;;;;;111.90;43.30;;;3.10;99.90;;;;;;5076494;28;20403;-75
2022/01/16 03:30:46;;;;;;;107.70;42.78;;;3.20;99.90;;;;;;5093433;28;20493;-75
2022/01/16 03:33:12;;;;;;;114.93;43.97;;;3.30;99.90;;;;;;5092798;28;20059;-74
2022/01/16 03:35:39;;;;;;;106.00;43.72;;;3.20;99.90;;;;;;5075896;28;20385;-75
2022/01/16 03:38:04;;;;;;;116.70;46.25;;;3.40;99.90;;;;;;5092605;28;20047;-74
2022/01/16 03:40:30;;;;;;;127.28;44.42;;;3.40;99.90;;;;;;5093215;28;20036;-74
2022/01/16 03:43:04;;;;;;;122.63;45.72;;;3.60;99.90;;;;;;5091881;28;20039;-74
2022/01/16 03:45:29;;;;;;;116.78;45.88;;;3.30;99.90;;;;;;5092722;28;20051;-73
2022/01/16 03:47:55;;;;;;;125.20;46.92;;;3.40;99.90;;;;;;5075270;28;20047;-73
2022/01/16 03:50:21;;;;;;;131.50;48.35;;;3.30;99.90;;;;;;5095604;28;20063;-73
2022/01/16 03:52:46;;;;;;;118.57;42.35;;;3.30;99.90;;;;;;5072584;28;20117;-74
2022/01/16 03:55:12;;;;;;;123.43;47.33;;;3.30;99.90;;;;;;5089389;28;20099;-74
2022/01/16 03:57:38;;;;;;;120.95;47.78;;;3.30;99.90;;;;;;5071996;28;20119;-74
2022/01/16 04:00:08;;;;;;;115.30;47.10;;;3.40;99.90;;;;;;5088601;28;20120;-75
2022/01/16 04:02:34;;;;;;;115.20;45.22;;;3.40;99.90;;;;;;5089479;28;20373;-75
2022/01/16 04:04:59;;;;;;;127.70;46.35;;;3.30;99.90;;;;;;5100806;28;20040;-75
2022/01/16 04:07:30;;;;;;;108.18;43.90;;;3.30;99.90;;;;;;5109486;28;20048;-75
2022/01/16 04:09:56;;;;;;;137.55;48.60;;;3.30;99.90;;;;;;5109356;28;20082;-74
2022/01/16 04:12:24;;;;;;;126.05;49.08;;;3.30;99.90;;;;;;5109370;28;20089;-74
2022/01/16 04:17:20;;;;;;;125.03;47.90;;;3.40;99.90;;;;;;5092133;28;20040;-74
2022/01/16 04:19:47;;;;;;;116.45;45.00;;;3.50;99.90;;;;;;5092077;28;20040;-74
2022/01/16 04:22:13;;;;;;;121.60;46.28;;;3.60;99.90;;;;;;5091828;28;20044;-74
2022/01/16 04:24:39;;;;;;;110.53;43.67;;;3.90;99.90;;;;;;5074517;28;20694;-75
2022/01/16 04:27:06;;;;;;;123.55;46.22;;;3.40;99.90;;;;;;5091849;28;20130;-75
2022/01/16 04:29:31;;;;;;;125.82;47.20;;;3.60;99.90;;;;;;5091756;28;20055;-74
2022/01/16 04:31:57;;;;;;;113.78;45.88;;;3.80;99.90;;;;;;5091785;28;20048;-74
2022/01/16 04:34:23;;;;;;;113.60;48.28;;;3.60;99.90;;;;;;5092081;28;20432;-74
2022/01/16 04:36:48;;;;;;;115.07;43.35;;;3.80;99.90;;;;;;5074899;28;20115;-74
2022/01/16 04:39:17;;;;;;;120.65;46.95;;;3.60;99.90;;;;;;5074900;28;20047;-74
2022/01/16 04:44:28;;;;;;;103.72;42.70;;;3.50;99.90;;;;;;5091498;28;20048;-75
2022/01/16 04:46:55;;;;;;;110.90;47.95;;;3.50;99.90;;;;;;5091525;28;20039;-76
2022/01/16 04:49:21;;;;;;;124.28;46.85;;;3.90;99.90;;;;;;5091793;28;20048;-76
2022/01/16 04:51:47;;;;;;;113.70;44.40;;;3.90;99.90;;;;;;5108339;28;20047;-76
2022/01/16 04:54:13;;;;;;;118.95;47.35;;;3.80;99.90;;;;;;5091348;28;20051;-75
2022/01/16 04:56:38;;;;;;;122.88;49.03;;;5.50;99.90;;;;;;5075130;28;20101;-75
2022/01/16 04:59:05;;;;;;;113.80;45.53;;;3.70;99.90;;;;;;5107736;28;20219;-75
2022/01/16 05:01:30;;;;;;;115.05;46.03;;;3.60;99.90;;;;;;5091314;28;20084;-75
2022/01/16 05:03:56;;;;;;;108.25;47.25;;;3.60;99.90;;;;;;5074205;28;20079;-75
2022/01/16 05:06:22;;;;;;;113.05;45.22;;;3.80;99.90;;;;;;5074741;28;20079;-75
2022/01/16 05:08:48;;;;;;;114.38;48.03;;;3.80;99.90;;;;;;5074396;28;20044;-75
2022/01/16 05:11:16;;;;;;;107.90;46.33;;;3.80;99.90;;;;;;5074315;28;20050;-75
2022/01/16 05:18:53;;;;;;;;;;;3.90;99.90;;;;;;5091193;28;20085;-74
2022/01/16 05:21:19;;;;;;;125.05;49.78;;;4.60;99.90;;;;;;5090606;28;19916;-75
2022/01/16 05:23:45;;;;;;;117.88;51.28;;;3.90;99.90;;;;;;5091156;28;20082;-75
2022/01/16 05:26:12;;;;;;;120.97;48.92;;;3.90;99.90;;;;;;5091127;28;20058;-75
2022/01/16 05:28:38;;;;;;;125.20;50.65;;;4.00;99.90;;;;;;5090782;28;20099;-75
2022/01/16 05:31:05;;;;;;;117.18;49.28;;;3.90;99.90;;;;;;5073991;28;20068;-75
2022/01/16 05:33:30;;;;;;;131.27;51.13;;;4.60;99.90;;;;;;5091596;28;20036;-75
2022/01/16 05:35:56;;;;;;;132.45;52.08;;;6.20;99.90;;;;;;5076429;28;20043;-75
2022/01/16 05:38:22;;;;;;;138.43;53.83;;;4.20;99.90;;;;;;5081003;28;20472;-75
2022/01/16 05:40:48;;;;;;;148.52;52.10;;;4.10;99.90;;;;;;5097743;28;20040;-76
2022/01/16 05:43:14;;;;;;;128.40;51.53;;;4.00;99.90;;;;;;5097824;28;20062;-75
2022/01/16 05:45:40;;;;;;;141.00;55.45;;;4.20;99.90;;;;;;5097970;28;20048;-75
2022/01/16 05:48:06;;;;;;;117.15;48.42;;;4.20;99.90;;;;;;5114562;28;20378;-75
2022/01/16 05:50:32;;;;;;;132.55;52.00;;;4.20;99.90;;;;;;5081210;28;20473;-75
2022/01/16 05:52:58;;;;;;;120.25;50.55;;;4.30;99.90;;;;;;5096959;28;20044;-75
2022/01/16 05:55:29;;;;;;;121.00;52.35;;;4.40;99.90;;;;;;5080860;28;20123;-75
2022/01/16 05:57:55;;;;;;;116.63;48.72;;;4.40;99.90;;;;;;5114716;28;20441;-76
2022/01/16 06:00:20;;;;;;;114.85;50.28;;;4.40;99.90;;;;;;5081188;28;20044;-76
2022/01/16 06:02:46;;;;;;;111.28;49.42;;;4.40;99.90;;;;;;5114749;28;20044;-76
2022/01/16 06:05:12;;;;;;;113.40;49.90;;;4.50;99.90;;;;;;5114488;28;20131;-76
2022/01/16 06:07:45;;;;;;;107.60;47.60;;;4.50;99.90;;;;;;5080477;28;20046;-76
2022/01/16 06:10:11;;;;;;;112.28;47.88;;;4.50;99.90;;;;;;5080383;28;20043;-75
2022/01/16 06:12:37;;;;;;;97.97;46.67;;;;;;;;;;5114694;28;20101;-75
2022/01/16 06:15:05;;;;;;;110.00;46.67;;;4.60;99.90;;;;;;5096882;28;20127;-75
2022/01/16 06:17:31;;;;;;;105.03;46.58;;;4.60;99.90;;;;;;5097675;28;20044;-75
2022/01/16 06:19:57;;;;;;;95.43;43.60;;;4.50;99.90;;;;;;5080209;28;20040;-75
2022/01/16 06:22:22;;;;;;;85.85;42.80;;;4.90;99.90;;;;;;5114379;28;20430;-75
2022/01/16 06:24:48;;;;;;;83.68;41.72;;;5.20;99.90;;;;;;5080342;28;20104;-76
2022/01/16 06:27:14;;;;;;;101.13;44.45;;;4.90;99.90;;;;;;5114558;28;20062;-76
2022/01/16 06:29:40;;;;;;;95.55;44.35;;;4.40;99.90;;;;;;5097393;28;20508;-76
2022/01/16 06:32:08;;;;;;;89.43;44.50;;;;;;;;;;5096829;28;20135;-76
2022/01/16 06:34:34;;;;;;;88.10;42.58;;;;;;;;;;5097447;28;20073;-76
2022/01/16 06:37:00;;;;;;;89.75;42.45;;;;;;;;;;5096776;28;20048;-76
2022/01/16 06:39:29;;;;;;;80.70;39.70;;;;;;;;;;5097320;28;20067;-74
2022/01/16 06:41:56;;;;;;;85.22;40.63;;;;;;;;;;5096769;28;20067;-74
2022/01/16 06:44:22;;;;;;;73.03;38.58;;;;;;;;;;5097294;28;20044;-74
2022/01/16 06:46:48;;;;;;;75.95;38.53;;;;;;;;;;5095748;28;20500;-76
2022/01/16 06:49:14;;;;;;;77.43;36.85;;;;;;;;;;5076711;28;20062;-76
2022/01/16 06:51:40;;;;;;;67.70;36.75;;;;;;;;;;5094308;28;20044;-76
2022/01/16 06:54:06;;;;;;;73.22;38.40;;;;;;;;;;5093626;28;20044;-75
2022/01/16 06:56:32;;;;;;;71.43;37.35;;;;;;;;;;5094094;28;20480;-75
2022/01/16 06:58:59;;;;;;;64.53;36.40;;;;;;;;;;5076593;28;20040;-75
2022/01/16 07:01:26;;;;;;;61.53;33.55;;;;;;;;;;5094114;28;20389;-75
2022/01/16 07:03:54;;;;;;;66.28;36.08;;;;;;;;;;5093607;28;20115;-75
2022/01/16 07:06:20;;;;;;;65.47;34.63;;;5.10;99.90;;;;;;5093647;28;20040;-76
2022/01/16 07:08:46;;;;;;;61.80;34.20;;;5.10;99.90;;;;;;5093698;28;20037;-74
2022/01/16 07:11:11;;;;;;;61.72;33.00;;;5.00;99.90;;;;;;5073266;28;20492;-74
2022/01/16 07:13:37;;;;;;;59.90;33.50;;;5.10;99.90;;;;;;5073020;28;20413;-74
2022/01/16 07:16:03;;;;;;;65.40;34.80;;;4.60;99.90;;;;;;5089817;28;20040;-75
2022/01/16 07:18:29;;;;;;;56.75;33.35;;;5.10;99.90;;;;;;5073595;28;20041;-75
2022/01/16 07:20:55;;;;;;;51.35;30.33;;;5.10;99.90;;;;;;5073936;28;20036;-76
2022/01/16 07:23:21;;;;;;;57.67;31.27;;;5.10;99.90;;;;;;5090341;28;20115;-77
2022/01/16 07:25:48;;;;;;;50.95;29.27;;;5.10;99.90;;;;;;5090018;28;20135;-76
2022/01/16 07:28:14;;;;;;;48.85;28.17;;;;;;;;;;5072834;28;20101;-76
2022/01/16 07:30:41;;;;;;;55.17;30.77;;;;;;;;;;5090041;28;20053;-75
2022/01/16 07:33:08;;;;;;;43.28;26.20;;;5.20;99.90;;;;;;5089204;28;20050;-75
2022/01/16 07:35:35;;;;;;;43.60;28.88;;;5.10;99.90;;;;;;5087137;28;20055;-75
2022/01/16 07:38:01;;;;;;;44.08;25.67;;;5.40;99.90;;;;;;5092706;28;20028;-75
2022/01/16 07:40:27;;;;;;;40.92;25.98;;;5.10;99.90;;;;;;5093513;28;20036;-75
2022/01/16 07:42:53;;;;;;;43.28;24.80;;;5.40;99.90;;;;;;5092153;28;20085;-76
2022/01/16 07:45:20;;;;;;;42.17;24.77;;;5.20;99.90;;;;;;5093004;28;20036;-76
2022/01/16 07:47:45;;;;;;;45.88;25.20;;;5.20;99.90;;;;;;5109640;28;20055;-76
2022/01/16 07:50:16;;;;;;;38.33;23.00;;;5.30;99.90;;;;;;5092899;28;20043;-77
2022/01/16 07:52:42;;;;;;;34.80;21.08;;;5.30;99.90;;;;;;5076046;28;20089;-77
2022/01/16 07:55:08;;;;;;;36.75;20.95;;;5.40;99.90;;;;;;5075434;28;20047;-76
2022/01/16 07:57:34;;;;;;;35.15;19.75;;;5.40;99.90;;;;;;5092335;28;20508;-76
2022/01/16 07:59:59;;;;;;;33.72;20.50;;;5.40;99.90;;;;;;5107940;28;20051;-77
2022/01/16 08:02:25;;;;;;;34.25;20.17;;;5.50;99.90;;;;;;5108777;28;20048;-77
2022/01/16 08:04:51;;;;;;;34.50;20.50;;;5.50;99.90;;;;;;5109099;28;20082;-77
2022/01/16 08:07:16;;;;;;;29.55;17.27;;;5.50;99.90;;;;;;5107860;28;20032;-77
2022/01/16 08:09:43;;;;;;;31.23;17.88;;;5.60;99.90;;;;;;5075664;28;20055;-77
2022/01/16 08:12:09;;;;;;;36.83;19.25;;;5.60;99.90;;;;;;5074985;28;20503;-77
2022/01/16 08:14:35;;;;;;;32.83;20.55;;;5.60;99.90;;;;;;5075603;28;20055;-77
2022/01/16 08:17:01;;;;;;;36.33;19.98;;;5.60;99.90;;;;;;5108905;28;20374;-77
2022/01/16 08:19:28;;;;;;;38.88;21.35;;;5.60;99.90;;;;;;5075675;28;20037;-76
2022/01/16 08:21:54;;;;;;;33.53;18.98;;;5.60;99.90;;;;;;5092198;28;20362;-77
2022/01/16 08:24:20;;;;;;;33.50;21.02;;;5.30;99.90;;;;;;5092360;28;20071;-76
2022/01/16 08:26:46;;;;;;;36.35;21.00;;;5.60;99.90;;;;;;5092226;28;20514;-76
2022/01/16 08:29:13;;;;;;;36.63;21.83;;;5.60;99.90;;;;;;5091529;28;20566;-76
2022/01/16 08:31:38;;;;;;;35.95;20.23;;;5.60;99.90;;;;;;5092341;28;20044;-76
2022/01/16 08:34:04;;;;;;;36.58;22.00;;;5.60;99.90;;;;;;5091983;28;20483;-76
2022/01/16 08:36:30;;;;;;;30.58;20.33;;;5.70;99.90;;;;;;5075513;28;20079;-77
2022/01/16 08:38:56;;;;;;;33.05;19.52;;;5.60;99.90;;;;;;5091794;28;20040;-77
2022/01/16 08:41:22;;;;;;;40.90;21.45;;;5.70;99.90;;;;;;5107384;28;20040;-76
2022/01/16 08:43:48;;;;;;;32.92;19.40;;;5.70;99.90;;;;;;5091990;28;20043;-77
2022/01/16 08:46:14;;;;;;;31.38;17.90;;;5.80;99.90;;;;;;5108781;28;20499;-77
2022/01/16 08:48:40;;;;;;;38.85;20.33;;;5.80;99.90;;;;;;5092293;28;20051;-77
2022/01/16 08:51:06;;;;;;;29.35;17.70;;;5.90;99.90;;;;;;5070980;28;20397;-77
2022/01/16 08:53:32;;;;;;;33.88;19.10;;;5.90;99.90;;;;;;5088598;28;20390;-77
2022/01/16 08:55:59;;;;;;;35.25;19.73;;;6.00;99.90;;;;;;5070893;28;20043;-77
2022/01/16 08:58:25;;;;;;;32.13;20.83;;;;;;;;;;5088541;28;20047;-77
2022/01/16 09:00:51;;;;;;;38.72;19.42;;;6.10;99.90;;;;;;5070492;28;20037;-76
2022/01/16 09:03:19;;;;;;;41.53;20.73;;;6.70;99.90;;;;;;5069955;28;20374;-76
2022/01/16 09:05:46;;;;;;;34.17;19.70;;;6.20;99.90;;;;;;5091156;28;20496;-76
2022/01/16 09:08:13;;;;;;;43.22;22.52;;;5.90;99.90;;;;;;5091480;28;20058;-77
2022/01/16 09:10:41;;;;;;;36.10;19.60;;;;;;;;;;5090996;28;20050;-76
2022/01/16 09:13:15;;;;;;;36.42;18.92;;;6.20;99.90;;;;;;5090530;28;20054;-76
2022/01/16 09:15:47;;;;;;;36.30;21.02;;;6.20;99.90;;;;;;5074134;28;20105;-76
2022/01/16 09:18:13;;;;;;;36.17;19.95;;;6.30;99.90;;;;;;5074220;28;20040;-78
2022/01/16 09:20:40;;;;;;;34.55;18.83;;;6.50;99.90;;;;;;5087814;28;20074;-79
2022/01/16 09:23:06;;;;;;;34.50;20.80;;;6.40;99.90;;;;;;5087746;28;20048;-79
2022/01/16 09:25:32;;;;;;;37.20;20.48;;;6.40;99.90;;;;;;5085788;28;20047;-75
2022/01/16 09:27:57;;;;;;;36.70;20.50;;;6.50;99.90;;;;;;5073565;28;20046;-75
2022/01/16 09:30:26;;;;;;;32.08;19.52;;;7.70;99.90;;;;;;5089315;28;20095;-78
2022/01/16 09:32:52;;;;;;;37.25;21.02;;;6.50;99.90;;;;;;5071073;28;20070;-76
2022/01/16 09:35:18;;;;;;;34.55;19.20;;;6.50;99.90;;;;;;5090777;28;20032;-77
2022/01/16 09:37:45;;;;;;;36.60;19.38;;;6.50;99.90;;;;;;5089890;28;20032;-76
2022/01/16 09:40:12;;;;;;;32.83;19.52;;;6.60;99.90;;;;;;5073351;28;20051;-77
2022/01/16 09:42:38;;;;;;;35.47;19.75;;;6.80;99.90;;;;;;5091267;28;20385;-76
2022/01/16 09:45:07;;;;;;;31.88;19.17;;;6.80;99.90;;;;;;5090105;28;20032;-77
2022/01/16 09:47:33;;;;;;;36.58;18.70;;;6.80;99.90;;;;;;5088822;28;20048;-79
2022/01/16 09:49:59;;;;;;;28.13;18.15;;;7.10;99.90;;;;;;5105218;28;20489;-80
2022/01/16 09:52:25;;;;;;;33.35;17.48;;;6.70;99.90;;;;;;5088015;28;20454;-80
2022/01/16 09:54:51;;;;;;;32.80;19.77;;;6.90;99.90;;;;;;5070011;28;20389;-77
2022/01/16 09:57:17;;;;;;;30.52;18.95;;;7.00;99.90;;;;;;5067875;28;20035;-82
2022/01/16 09:59:44;;;;;;;31.95;18.15;;;6.80;99.90;;;;;;5089255;28;20047;-73
2022/01/16 10:02:10;;;;;;;39.45;19.00;;;6.80;99.90;;;;;;5088638;28;20039;-78
2022/01/16 10:04:39;;;;;;;32.20;17.35;;;6.90;99.90;;;;;;5088156;28;20047;-78
2022/01/16 10:07:10;;;;;;;26.33;16.25;;;;;;;;;;5088137;28;20040;-77
2022/01/16 10:09:38;;;;;;;30.05;17.27;;;;;;;;;;5086614;28;20091;-74
2022/01/16 10:15:28;;;;;;;32.60;16.00;;;7.10;99.90;;;;;;5091151;28;20051;-75
2022/01/16 10:17:58;;;;;;;27.60;14.95;;;7.30;99.90;;;;;;5071322;28;20396;-82
2022/01/16 10:20:25;;;;;;;26.88;14.98;;;7.40;99.90;;;;;;5091163;28;20032;-80
2022/01/16 10:22:55;;;;;;;26.27;14.85;;;7.30;99.90;;;;;;5089749;28;20097;-74
2022/01/16 10:25:36;;;;;;;28.50;14.10;;;7.30;99.90;;;;;;5092538;28;20040;-82
2022/01/16 10:28:04;;;;;;;31.60;15.57;;;7.10;99.90;;;;;;5093231;28;20046;-77
2022/01/16 10:30:46;;;;;;;28.65;14.52;;;;;;;;;;5075266;28;20044;-78
2022/01/16 10:33:19;;;;;;;25.05;12.95;;;7.60;99.90;;;;;;5074750;28;20044;-74
2022/01/16 10:35:48;;;;;;;22.58;13.30;;;;;;;;;;5077220;28;20175;-79
2022/01/16 10:38:20;;;;;;;25.70;13.02;;;;;;;;;;5093993;28;20040;-79
2022/01/16 10:40:50;;;;;;;23.65;12.85;;;;;;;;;;5093756;28;20040;-79
2022/01/16 10:43:38;;;;;;;23.48;13.20;;;;;;;;;;5108805;28;20036;-78
2022/01/16 10:46:05;;;;;;;23.02;12.48;;;;;;;;;;5107615;28;20455;-78
2022/01/16 10:48:32;;;;;;;21.67;11.43;;;7.20;99.90;;;;;;5092074;28;20759;-81
2022/01/16 10:50:58;;;;;;;22.83;11.85;;;7.50;99.90;;;;;;5091493;28;20048;-77
2022/01/16 10:53:26;;;;;;;23.15;10.80;;;7.10;99.90;;;;;;5090483;28;20126;-77
2022/01/16 10:55:57;;;;;;;25.30;11.65;;;7.20;99.90;;;;;;5092257;28;20135;-78
2022/01/16 10:58:26;;;;;;;26.15;11.73;;;6.90;99.90;;;;;;5091560;28;20105;-79
2022/01/16 11:00:59;;;;;;;19.98;10.27;;;7.00;99.90;;;;;;5098068;28;20048;-78
2022/01/16 11:03:26;;;;;;;24.23;10.20;;;8.30;99.90;;;;;;5073293;28;20051;-78
2022/01/16 11:05:53;;;;;;;17.98;9.48;;;7.20;99.90;;;;;;5089034;28;20040;-79
2022/01/16 11:08:23;;;;;;;21.17;9.38;;;7.20;99.90;;;;;;5073635;28;20093;-79
2022/01/16 11:10:54;;;;;;;17.88;9.55;;;7.10;99.90;;;;;;5090384;28;20159;-79
2022/01/16 11:13:23;;;;;;;20.38;9.98;;;6.80;99.90;;;;;;5090300;28;20101;-78
2022/01/16 11:15:52;;;;;;;17.77;8.63;;;7.20;99.90;;;;;;5093444;28;20048;-78
2022/01/16 11:18:20;;;;;;;17.35;8.50;;;7.20;99.90;;;;;;5075833;28;20119;-79
2022/01/16 11:21:03;;;;;;;18.45;8.60;;;7.20;99.90;;;;;;5085066;28;20048;-79
2022/01/16 11:23:45;;;;;;;24.38;11.40;;;7.20;99.90;;;;;;5087847;28;20071;-79
2022/01/16 11:26:11;;;;;;;13.68;7.35;;;7.10;99.90;;;;;;5092465;28;20563;-82
2022/01/16 11:28:38;;;;;;;19.42;7.88;;;7.40;99.90;;;;;;5091200;28;20125;-82
2022/01/16 11:31:09;;;;;;;16.58;8.43;;;7.30;99.90;;;;;;5092998;28;20044;-80
2022/01/16 11:33:36;;;;;;;18.00;7.88;;;7.20;99.90;;;;;;5091240;28;20040;-79
2022/01/16 11:36:04;;;;;;;15.90;8.48;;;7.00;99.90;;;;;;5094346;28;20116;-81
2022/01/16 11:38:41;;;;;;;22.65;8.63;;;8.80;99.90;;;;;;5092066;28;20036;-77
2022/01/16 11:41:14;;;;;;;19.92;7.88;;;9.20;99.90;;;;;;5092947;28;20376;-77
2022/01/16 11:43:41;;;;;;;21.40;8.02;;;7.30;99.90;;;;;;5092816;28;20042;-78
2022/01/16 11:46:10;;;;;;;13.32;7.05;;;7.30;99.90;;;;;;5092310;28;20046;-77
2022/01/16 11:48:42;;;;;;;21.48;7.50;;;7.40;99.90;;;;;;5092167;28;20044;-77
2022/01/16 11:54:05;;;;;;;13.30;7.57;;;7.40;99.90;;;;;;5091841;28;20408;-77
2022/01/16 11:56:39;;;;;;;16.98;7.65;;;7.40;99.90;;;;;;5091886;28;20040;-78
2022/01/16 11:59:24;;;;;;;15.57;6.90;;;7.10;99.90;;;;;;5092076;28;20143;-77
2022/01/16 12:02:07;;;;;;;18.83;7.28;;;7.40;99.90;;;;;;5091839;28;20488;-78
2022/01/16 12:04:33;;;;;;;16.77;7.15;;;7.40;99.90;;;;;;5076053;28;20040;-78
2022/01/16 12:07:20;;;;;;;19.27;7.35;;;7.40;99.90;;;;;;5091871;28;20511;-78
2022/01/16 12:09:57;;;;;;;16.23;6.18;;;7.40;99.90;;;;;;5091262;28;20043;-78
2022/01/16 12:12:23;;;;;;;15.52;6.35;;;7.40;99.90;;;;;;5092612;28;20083;-78
2022/01/16 12:15:07;;;;;;;17.20;7.25;;;7.40;99.90;;;;;;5092151;28;20076;-78
2022/01/16 12:17:53;;;;;;;15.10;6.35;;;7.40;99.90;;;;;;5091573;28;20044;-78
2022/01/16 12:20:20;;;;;;;15.30;6.82;;;7.40;99.90;;;;;;5074805;28;20047;-78
2022/01/16 12:23:08;;;;;;;18.38;7.07;;;7.70;99.90;;;;;;5091081;28;20040;-78
2022/01/16 12:25:43;;;;;;;16.65;7.18;;;7.40;99.90;;;;;;5092606;28;20050;-78
2022/01/16 12:28:08;;;;;;;15.48;8.18;;;7.40;99.90;;;;;;5091489;28;20048;-78
2022/01/16 12:30:55;;;;;;;18.15;7.05;;;8.40;99.90;;;;;;5091498;28;20054;-78
2022/01/16 12:33:24;;;;;;;19.58;8.13;;;6.90;99.90;;;;;;5092327;28;20389;-78
2022/01/16 12:35:50;;;;;;;21.42;8.13;;;7.40;99.90;;;;;;5074725;28;20055;-78
2022/01/16 12:38:20;;;;;;;16.23;7.97;;;7.40;99.90;;;;;;5091006;28;20044;-78
2022/01/16 12:40:51;;;;;;;20.85;8.05;;;7.40;99.90;;;;;;5091638;28;20051;-78
2022/01/16 12:43:26;;;;;;;16.02;7.20;;;7.40;99.90;;;;;;5108751;28;20040;-78
2022/01/16 12:45:53;;;;;;;14.77;7.32;;;7.40;99.90;;;;;;5089884;28;20128;-78
2022/01/16 12:48:19;;;;;;;14.85;7.35;;;7.40;99.90;;;;;;5091700;28;20039;-77
2022/01/16 12:50:45;;;;;;;18.00;6.97;;;7.40;99.90;;;;;;5091044;28;20055;-77
2022/01/16 12:53:11;;;;;;;14.38;6.35;;;7.40;99.90;;;;;;5108197;28;20044;-77
2022/01/16 12:55:37;;;;;;;15.43;6.80;;;7.40;99.90;;;;;;5074690;28;20048;-78
2022/01/16 12:58:17;;;;;;;12.35;6.43;;;7.40;99.90;;;;;;5090290;28;20032;-76
2022/01/16 13:00:58;;;;;;;12.77;6.95;;;7.40;99.90;;;;;;5091547;28;20043;-75
2022/01/16 13:03:28;;;;;;;13.13;6.80;;;7.40;99.90;;;;;;5074640;28;20048;-75
2022/01/16 13:06:15;;;;;;;13.60;6.55;;;7.40;99.90;;;;;;5090338;28;20047;-76
2022/01/16 13:09:08;;;;;;;14.98;6.47;;;7.40;99.90;;;;;;5091297;28;20055;-76
2022/01/16 13:11:55;;;;;;;19.83;7.28;;;7.40;99.90;;;;;;5091442;28;20055;-76
2022/01/16 13:14:25;;;;;;;24.17;7.38;;;7.40;99.90;;;;;;5074444;28;20036;-76
2022/01/16 13:16:56;;;;;;;14.00;6.63;;;7.40;99.90;;;;;;5090693;28;20119;-76
2022/01/16 13:19:27;;;;;;;19.77;7.43;;;7.40;99.90;;;;;;5073985;28;20389;-76
2022/01/16 13:22:20;;;;;;;16.33;7.45;;;7.40;99.90;;;;;;5090716;28;20548;-76
2022/01/16 13:24:51;;;;;;;16.20;7.38;;;7.40;99.90;;;;;;5090918;28;20048;-76
2022/01/16 13:27:16;;;;;;;19.17;7.65;;;7.50;99.90;;;;;;5090313;28;20048;-76
2022/01/16 13:29:50;;;;;;;23.35;7.63;;;7.50;99.90;;;;;;5090927;28;20083;-77
2022/01/16 13:32:32;;;;;;;18.40;7.82;;;7.50;99.90;;;;;;5090990;28;20513;-76
2022/01/16 13:34:59;;;;;;;16.77;7.90;;;7.60;99.90;;;;;;5089742;28;20048;-77
2022/01/16 13:37:29;;;;;;;15.50;7.15;;;7.10;99.90;;;;;;5090924;28;20377;-77
2022/01/16 13:40:03;;;;;;;19.52;8.25;;;7.50;99.90;;;;;;5073590;28;20082;-76
2022/01/16 13:42:42;;;;;;;14.95;7.97;;;7.60;99.90;;;;;;5074060;28;20095;-76
2022/01/16 13:45:35;;;;;;;20.13;7.82;;;7.60;99.90;;;;;;5073583;28;20127;-77
2022/01/16 13:48:04;;;;;;;21.17;8.50;;;7.60;99.90;;;;;;5089621;28;20050;-77